sensor_id;sensor_type;location;lat;lon;timestamp;P1;durP1;ratioP1;P2;durP2;ratioP2
23175;SDS011;19910;42.652;23.332;2023-06-04T00:02:20;5.47;;;4.28;;
23175;SDS011;19910;42.652;23.332;2023-06-04T00:04:47;6.00;;;4.63;;
23175;SDS011;19910;42.652;23.332;2023-06-04T00:07:14;7.72;;;5.57;;
23175;SDS011;19910;42.652;23.332;2023-06-04T00:09:41;9.75;;;5.18;;
23175;SDS011;19910;42.652;23.332;2023-06-04T00:12:07;8.75;;;5.43;;
23175;SDS011;19910;42.652;23.332;2023-06-04T00:14:36;6.60;;;4.55;;
23175;SDS011;19910;42.652;23.332;2023-06-04T00:17:02;8.43;;;5.45;;
23175;SDS011;19910;42.652;23.332;2023-06-04T00:19:29;6.90;;;5.07;;
23175;SDS011;19910;42.652;23.332;2023-06-04T00:21:56;5.75;;;4.70;;
23175;SDS011;19910;42.652;23.332;2023-06-04T00:24:23;8.30;;;4.13;;
23175;SDS011;19910;42.652;23.332;2023-06-04T00:26:50;6.40;;;4.28;;
23175;SDS011;19910;42.652;23.332;2023-06-04T00:29:16;6.90;;;4.35;;
23175;SDS011;19910;42.652;23.332;2023-06-04T00:31:45;7.20;;;4.05;;
23175;SDS011;19910;42.652;23.332;2023-06-04T00:34:11;6.07;;;3.63;;
23175;SDS011;19910;42.652;23.332;2023-06-04T00:36:39;4.70;;;3.45;;
23175;SDS011;19910;42.652;23.332;2023-06-04T00:39:06;4.43;;;3.55;;
23175;SDS011;19910;42.652;23.332;2023-06-04T00:41:33;5.65;;;3.35;;
23175;SDS011;19910;42.652;23.332;2023-06-04T00:43:59;4.68;;;3.00;;
23175;SDS011;19910;42.652;23.332;2023-06-04T00:46:31;3.40;;;3.10;;
23175;SDS011;19910;42.652;23.332;2023-06-04T00:49:00;4.95;;;3.55;;
23175;SDS011;19910;42.652;23.332;2023-06-04T00:51:26;5.38;;;3.30;;
23175;SDS011;19910;42.652;23.332;2023-06-04T00:53:56;4.95;;;3.28;;
23175;SDS011;19910;42.652;23.332;2023-06-04T00:56:26;4.13;;;3.30;;
23175;SDS011;19910;42.652;23.332;2023-06-04T00:58:53;5.07;;;3.35;;
23175;SDS011;19910;42.652;23.332;2023-06-04T01:01:23;4.70;;;3.22;;
23175;SDS011;19910;42.652;23.332;2023-06-04T01:03:57;4.32;;;2.92;;
23175;SDS011;19910;42.652;23.332;2023-06-04T01:06:28;4.15;;;3.15;;
23175;SDS011;19910;42.652;23.332;2023-06-04T01:09:02;5.00;;;3.20;;
23175;SDS011;19910;42.652;23.332;2023-06-04T01:11:30;4.47;;;2.88;;
23175;SDS011;19910;42.652;23.332;2023-06-04T01:13:58;3.63;;;3.00;;
23175;SDS011;19910;42.652;23.332;2023-06-04T01:16:25;5.88;;;3.15;;
23175;SDS011;19910;42.652;23.332;2023-06-04T01:18:55;5.28;;;3.10;;
23175;SDS011;19910;42.652;23.332;2023-06-04T01:21:27;5.88;;;3.45;;
23175;SDS011;19910;42.652;23.332;2023-06-04T01:23:56;7.30;;;4.05;;
23175;SDS011;19910;42.652;23.332;2023-06-04T01:26:27;7.35;;;4.57;;
23175;SDS011;19910;42.652;23.332;2023-06-04T01:28:57;9.13;;;5.07;;
23175;SDS011;19910;42.652;23.332;2023-06-04T01:31:25;9.27;;;5.80;;
23175;SDS011;19910;42.652;23.332;2023-06-04T01:33:58;7.57;;;5.22;;
23175;SDS011;19910;42.652;23.332;2023-06-04T01:36:24;7.70;;;5.40;;
23175;SDS011;19910;42.652;23.332;2023-06-04T01:38:53;9.95;;;6.30;;
23175;SDS011;19910;42.652;23.332;2023-06-04T01:41:19;9.68;;;6.60;;
23175;SDS011;19910;42.652;23.332;2023-06-04T01:43:46;9.95;;;6.85;;
23175;SDS011;19910;42.652;23.332;2023-06-04T01:46:13;9.02;;;6.55;;
23175;SDS011;19910;42.652;23.332;2023-06-04T01:48:40;11.93;;;7.72;;
23175;SDS011;19910;42.652;23.332;2023-06-04T01:51:06;9.00;;;6.28;;
23175;SDS011;19910;42.652;23.332;2023-06-04T01:53:34;7.70;;;5.30;;
23175;SDS011;19910;42.652;23.332;2023-06-04T01:56:01;9.00;;;6.07;;
23175;SDS011;19910;42.652;23.332;2023-06-04T01:58:28;9.70;;;6.03;;
23175;SDS011;19910;42.652;23.332;2023-06-04T02:00:57;6.05;;;4.10;;
23175;SDS011;19910;42.652;23.332;2023-06-04T02:03:25;7.72;;;4.60;;
23175;SDS011;19910;42.652;23.332;2023-06-04T02:05:52;4.50;;;3.20;;
23175;SDS011;19910;42.652;23.332;2023-06-04T02:08:19;3.95;;;3.20;;
23175;SDS011;19910;42.652;23.332;2023-06-04T02:10:47;4.05;;;3.08;;
23175;SDS011;19910;42.652;23.332;2023-06-04T02:13:15;4.85;;;2.80;;
23175;SDS011;19910;42.652;23.332;2023-06-04T02:15:41;5.70;;;3.00;;
23175;SDS011;19910;42.652;23.332;2023-06-04T02:18:12;2.88;;;2.53;;
23175;SDS011;19910;42.652;23.332;2023-06-04T02:20:41;4.22;;;2.72;;
23175;SDS011;19910;42.652;23.332;2023-06-04T02:23:09;5.78;;;2.72;;
23175;SDS011;19910;42.652;23.332;2023-06-04T02:25:35;3.50;;;2.92;;
23175;SDS011;19910;42.652;23.332;2023-06-04T02:28:03;3.90;;;2.83;;
23175;SDS011;19910;42.652;23.332;2023-06-04T02:30:30;3.92;;;2.60;;
23175;SDS011;19910;42.652;23.332;2023-06-04T02:32:57;3.15;;;2.47;;
23175;SDS011;19910;42.652;23.332;2023-06-04T02:35:26;6.78;;;2.72;;
23175;SDS011;19910;42.652;23.332;2023-06-04T02:37:53;3.17;;;2.17;;
23175;SDS011;19910;42.652;23.332;2023-06-04T02:40:21;3.63;;;2.88;;
23175;SDS011;19910;42.652;23.332;2023-06-04T02:42:48;4.55;;;2.70;;
23175;SDS011;19910;42.652;23.332;2023-06-04T02:45:16;3.83;;;2.55;;
23175;SDS011;19910;42.652;23.332;2023-06-04T02:47:43;3.75;;;2.92;;
23175;SDS011;19910;42.652;23.332;2023-06-04T02:50:11;5.60;;;2.47;;
23175;SDS011;19910;42.652;23.332;2023-06-04T02:52:38;4.15;;;2.67;;
23175;SDS011;19910;42.652;23.332;2023-06-04T02:55:05;3.88;;;2.88;;
23175;SDS011;19910;42.652;23.332;2023-06-04T02:57:33;4.95;;;2.92;;
23175;SDS011;19910;42.652;23.332;2023-06-04T03:00:01;3.22;;;2.63;;
23175;SDS011;19910;42.652;23.332;2023-06-04T03:02:37;4.53;;;3.22;;
23175;SDS011;19910;42.652;23.332;2023-06-04T03:05:04;8.18;;;2.75;;
23175;SDS011;19910;42.652;23.332;2023-06-04T03:07:31;3.28;;;2.60;;
23175;SDS011;19910;42.652;23.332;2023-06-04T03:09:58;4.32;;;2.63;;
23175;SDS011;19910;42.652;23.332;2023-06-04T03:12:25;3.53;;;2.53;;
23175;SDS011;19910;42.652;23.332;2023-06-04T03:14:52;6.15;;;2.60;;
23175;SDS011;19910;42.652;23.332;2023-06-04T03:17:18;3.30;;;2.42;;
23175;SDS011;19910;42.652;23.332;2023-06-04T03:19:47;3.15;;;2.50;;
23175;SDS011;19910;42.652;23.332;2023-06-04T03:22:13;4.15;;;2.50;;
23175;SDS011;19910;42.652;23.332;2023-06-04T03:24:41;4.25;;;2.95;;
23175;SDS011;19910;42.652;23.332;2023-06-04T03:27:08;3.92;;;2.83;;
23175;SDS011;19910;42.652;23.332;2023-06-04T03:29:36;4.75;;;2.70;;
23175;SDS011;19910;42.652;23.332;2023-06-04T03:32:03;4.43;;;3.05;;
23175;SDS011;19910;42.652;23.332;2023-06-04T03:34:31;3.50;;;2.80;;
23175;SDS011;19910;42.652;23.332;2023-06-04T03:36:59;3.55;;;2.60;;
23175;SDS011;19910;42.652;23.332;2023-06-04T03:39:26;3.90;;;2.65;;
23175;SDS011;19910;42.652;23.332;2023-06-04T03:41:53;4.53;;;2.83;;
23175;SDS011;19910;42.652;23.332;2023-06-04T03:44:21;5.35;;;2.92;;
23175;SDS011;19910;42.652;23.332;2023-06-04T03:46:47;3.45;;;3.05;;
23175;SDS011;19910;42.652;23.332;2023-06-04T03:49:14;4.38;;;3.28;;
23175;SDS011;19910;42.652;23.332;2023-06-04T03:51:42;6.40;;;3.40;;
23175;SDS011;19910;42.652;23.332;2023-06-04T03:54:10;5.65;;;3.15;;
23175;SDS011;19910;42.652;23.332;2023-06-04T03:56:42;5.75;;;2.95;;
23175;SDS011;19910;42.652;23.332;2023-06-04T03:59:09;4.28;;;3.00;;
23175;SDS011;19910;42.652;23.332;2023-06-04T04:01:36;3.42;;;2.70;;
23175;SDS011;19910;42.652;23.332;2023-06-04T04:04:03;5.85;;;3.15;;
23175;SDS011;19910;42.652;23.332;2023-06-04T04:06:30;3.35;;;2.70;;
23175;SDS011;19910;42.652;23.332;2023-06-04T04:08:57;4.85;;;3.47;;
23175;SDS011;19910;42.652;23.332;2023-06-04T04:11:25;3.85;;;3.03;;
23175;SDS011;19910;42.652;23.332;2023-06-04T04:13:52;6.18;;;2.78;;
23175;SDS011;19910;42.652;23.332;2023-06-04T04:16:19;6.20;;;3.42;;
23175;SDS011;19910;42.652;23.332;2023-06-04T04:18:45;4.43;;;3.55;;
23175;SDS011;19910;42.652;23.332;2023-06-04T04:21:12;5.18;;;3.75;;
23175;SDS011;19910;42.652;23.332;2023-06-04T04:23:39;5.28;;;3.72;;
23175;SDS011;19910;42.652;23.332;2023-06-04T04:26:07;5.72;;;3.53;;
23175;SDS011;19910;42.652;23.332;2023-06-04T04:28:36;6.85;;;3.35;;
23175;SDS011;19910;42.652;23.332;2023-06-04T04:31:03;4.50;;;3.00;;
23175;SDS011;19910;42.652;23.332;2023-06-04T04:33:31;3.97;;;3.00;;
23175;SDS011;19910;42.652;23.332;2023-06-04T04:36:01;4.15;;;3.50;;
23175;SDS011;19910;42.652;23.332;2023-06-04T04:38:28;4.13;;;3.35;;
23175;SDS011;19910;42.652;23.332;2023-06-04T04:40:58;3.92;;;3.20;;
23175;SDS011;19910;42.652;23.332;2023-06-04T04:43:29;6.68;;;3.60;;
23175;SDS011;19910;42.652;23.332;2023-06-04T04:45:58;4.63;;;3.67;;
23175;SDS011;19910;42.652;23.332;2023-06-04T04:48:25;4.65;;;3.40;;
23175;SDS011;19910;42.652;23.332;2023-06-04T04:50:52;6.85;;;3.63;;
23175;SDS011;19910;42.652;23.332;2023-06-04T04:53:19;5.30;;;3.50;;
23175;SDS011;19910;42.652;23.332;2023-06-04T04:55:45;8.68;;;3.70;;
23175;SDS011;19910;42.652;23.332;2023-06-04T04:58:12;4.78;;;3.40;;
23175;SDS011;19910;42.652;23.332;2023-06-04T05:00:39;4.40;;;3.47;;
23175;SDS011;19910;42.652;23.332;2023-06-04T05:03:07;5.72;;;3.97;;
23175;SDS011;19910;42.652;23.332;2023-06-04T05:05:34;5.00;;;3.70;;
23175;SDS011;19910;42.652;23.332;2023-06-04T05:08:01;5.47;;;3.17;;
23175;SDS011;19910;42.652;23.332;2023-06-04T05:10:27;6.47;;;3.55;;
23175;SDS011;19910;42.652;23.332;2023-06-04T05:12:55;5.22;;;3.70;;
23175;SDS011;19910;42.652;23.332;2023-06-04T05:15:23;5.80;;;3.97;;
23175;SDS011;19910;42.652;23.332;2023-06-04T05:17:51;5.65;;;3.78;;
23175;SDS011;19910;42.652;23.332;2023-06-04T05:20:19;6.68;;;4.25;;
23175;SDS011;19910;42.652;23.332;2023-06-04T05:22:47;4.25;;;3.70;;
23175;SDS011;19910;42.652;23.332;2023-06-04T05:25:14;6.90;;;3.60;;
23175;SDS011;19910;42.652;23.332;2023-06-04T05:27:43;6.22;;;3.92;;
23175;SDS011;19910;42.652;23.332;2023-06-04T05:30:10;6.88;;;4.40;;
23175;SDS011;19910;42.652;23.332;2023-06-04T05:32:38;4.68;;;3.75;;
23175;SDS011;19910;42.652;23.332;2023-06-04T05:35:06;5.00;;;3.67;;
23175;SDS011;19910;42.652;23.332;2023-06-04T05:37:35;5.32;;;3.67;;
23175;SDS011;19910;42.652;23.332;2023-06-04T05:40:06;6.78;;;3.85;;
23175;SDS011;19910;42.652;23.332;2023-06-04T05:42:34;5.22;;;3.92;;
23175;SDS011;19910;42.652;23.332;2023-06-04T05:45:01;6.57;;;4.32;;
23175;SDS011;19910;42.652;23.332;2023-06-04T05:47:28;5.35;;;4.10;;
23175;SDS011;19910;42.652;23.332;2023-06-04T05:49:56;8.00;;;4.05;;
23175;SDS011;19910;42.652;23.332;2023-06-04T05:52:23;5.53;;;4.22;;
23175;SDS011;19910;42.652;23.332;2023-06-04T05:54:51;4.90;;;3.55;;
23175;SDS011;19910;42.652;23.332;2023-06-04T05:57:18;6.40;;;5.00;;
23175;SDS011;19910;42.652;23.332;2023-06-04T05:59:46;6.38;;;4.68;;
23175;SDS011;19910;42.652;23.332;2023-06-04T06:02:13;5.93;;;3.50;;
23175;SDS011;19910;42.652;23.332;2023-06-04T06:04:39;10.77;;;4.68;;
23175;SDS011;19910;42.652;23.332;2023-06-04T06:07:06;5.28;;;4.30;;
23175;SDS011;19910;42.652;23.332;2023-06-04T06:09:33;9.90;;;5.05;;
23175;SDS011;19910;42.652;23.332;2023-06-04T06:12:02;10.43;;;5.85;;
23175;SDS011;19910;42.652;23.332;2023-06-04T06:14:30;10.45;;;6.05;;
23175;SDS011;19910;42.652;23.332;2023-06-04T06:16:57;7.43;;;4.95;;
23175;SDS011;19910;42.652;23.332;2023-06-04T06:19:24;9.75;;;5.50;;
23175;SDS011;19910;42.652;23.332;2023-06-04T06:21:51;10.10;;;5.47;;
23175;SDS011;19910;42.652;23.332;2023-06-04T06:24:18;9.30;;;5.38;;
23175;SDS011;19910;42.652;23.332;2023-06-04T06:26:45;10.43;;;5.50;;
23175;SDS011;19910;42.652;23.332;2023-06-04T06:29:13;7.07;;;4.63;;
23175;SDS011;19910;42.652;23.332;2023-06-04T06:31:40;11.77;;;4.95;;
23175;SDS011;19910;42.652;23.332;2023-06-04T06:34:07;8.18;;;4.80;;
23175;SDS011;19910;42.652;23.332;2023-06-04T06:36:33;7.65;;;5.20;;
23175;SDS011;19910;42.652;23.332;2023-06-04T06:39:00;8.60;;;5.07;;
23175;SDS011;19910;42.652;23.332;2023-06-04T06:41:27;7.38;;;4.60;;
23175;SDS011;19910;42.652;23.332;2023-06-04T06:43:55;5.40;;;4.15;;
23175;SDS011;19910;42.652;23.332;2023-06-04T06:46:24;6.68;;;4.25;;
23175;SDS011;19910;42.652;23.332;2023-06-04T06:48:50;8.55;;;4.97;;
23175;SDS011;19910;42.652;23.332;2023-06-04T06:51:17;8.65;;;4.93;;
23175;SDS011;19910;42.652;23.332;2023-06-04T06:53:44;9.07;;;4.75;;
23175;SDS011;19910;42.652;23.332;2023-06-04T06:56:10;8.38;;;4.43;;
23175;SDS011;19910;42.652;23.332;2023-06-04T06:58:37;8.30;;;5.45;;
23175;SDS011;19910;42.652;23.332;2023-06-04T07:01:04;8.07;;;5.35;;
23175;SDS011;19910;42.652;23.332;2023-06-04T07:03:32;7.68;;;5.25;;
23175;SDS011;19910;42.652;23.332;2023-06-04T07:05:59;7.35;;;5.15;;
23175;SDS011;19910;42.652;23.332;2023-06-04T07:08:26;6.47;;;4.20;;
23175;SDS011;19910;42.652;23.332;2023-06-04T07:10:53;8.20;;;3.85;;
23175;SDS011;19910;42.652;23.332;2023-06-04T07:13:20;6.60;;;3.40;;
23175;SDS011;19910;42.652;23.332;2023-06-04T07:15:47;5.10;;;3.53;;
23175;SDS011;19910;42.652;23.332;2023-06-04T07:18:13;6.40;;;4.35;;
23175;SDS011;19910;42.652;23.332;2023-06-04T07:20:41;7.05;;;3.35;;
23175;SDS011;19910;42.652;23.332;2023-06-04T07:23:08;8.05;;;5.20;;
23175;SDS011;19910;42.652;23.332;2023-06-04T07:25:35;8.48;;;5.82;;
23175;SDS011;19910;42.652;23.332;2023-06-04T07:28:02;7.88;;;5.20;;
23175;SDS011;19910;42.652;23.332;2023-06-04T07:30:30;9.57;;;4.15;;
23175;SDS011;19910;42.652;23.332;2023-06-04T07:32:57;5.25;;;3.65;;
23175;SDS011;19910;42.652;23.332;2023-06-04T07:35:24;7.55;;;5.35;;
23175;SDS011;19910;42.652;23.332;2023-06-04T07:37:52;7.78;;;5.20;;
23175;SDS011;19910;42.652;23.332;2023-06-04T07:40:19;7.32;;;5.30;;
23175;SDS011;19910;42.652;23.332;2023-06-04T07:42:46;7.75;;;5.47;;
23175;SDS011;19910;42.652;23.332;2023-06-04T07:45:13;9.98;;;5.82;;
23175;SDS011;19910;42.652;23.332;2023-06-04T07:47:40;7.30;;;5.10;;
23175;SDS011;19910;42.652;23.332;2023-06-04T07:50:07;11.30;;;6.20;;
23175;SDS011;19910;42.652;23.332;2023-06-04T07:52:34;8.68;;;6.10;;
23175;SDS011;19910;42.652;23.332;2023-06-04T07:55:03;12.55;;;6.90;;
23175;SDS011;19910;42.652;23.332;2023-06-04T07:57:31;11.25;;;6.22;;
23175;SDS011;19910;42.652;23.332;2023-06-04T07:59:58;10.75;;;6.45;;
23175;SDS011;19910;42.652;23.332;2023-06-04T08:02:25;12.43;;;6.38;;
23175;SDS011;19910;42.652;23.332;2023-06-04T08:04:52;10.70;;;7.15;;
23175;SDS011;19910;42.652;23.332;2023-06-04T08:07:18;9.50;;;7.20;;
23175;SDS011;19910;42.652;23.332;2023-06-04T08:09:45;10.20;;;6.03;;
23175;SDS011;19910;42.652;23.332;2023-06-04T08:12:13;11.55;;;5.75;;
23175;SDS011;19910;42.652;23.332;2023-06-04T08:14:41;10.88;;;6.35;;
23175;SDS011;19910;42.652;23.332;2023-06-04T08:17:08;11.65;;;7.50;;
23175;SDS011;19910;42.652;23.332;2023-06-04T08:19:34;10.68;;;6.32;;
23175;SDS011;19910;42.652;23.332;2023-06-04T08:22:01;10.73;;;6.35;;
23175;SDS011;19910;42.652;23.332;2023-06-04T08:24:29;10.40;;;6.18;;
23175;SDS011;19910;42.652;23.332;2023-06-04T08:26:55;10.65;;;8.07;;
23175;SDS011;19910;42.652;23.332;2023-06-04T08:29:23;10.98;;;7.53;;
23175;SDS011;19910;42.652;23.332;2023-06-04T08:31:50;11.15;;;8.00;;
23175;SDS011;19910;42.652;23.332;2023-06-04T08:34:17;15.68;;;8.27;;
23175;SDS011;19910;42.652;23.332;2023-06-04T08:36:45;12.68;;;7.82;;
23175;SDS011;19910;42.652;23.332;2023-06-04T08:39:11;12.27;;;7.80;;
23175;SDS011;19910;42.652;23.332;2023-06-04T08:41:41;12.15;;;7.38;;
23175;SDS011;19910;42.652;23.332;2023-06-04T08:44:09;10.00;;;7.43;;
23175;SDS011;19910;42.652;23.332;2023-06-04T08:46:38;10.90;;;7.45;;
23175;SDS011;19910;42.652;23.332;2023-06-04T08:49:06;13.25;;;7.65;;
23175;SDS011;19910;42.652;23.332;2023-06-04T08:51:34;11.98;;;7.82;;
23175;SDS011;19910;42.652;23.332;2023-06-04T08:54:03;9.45;;;6.97;;
23175;SDS011;19910;42.652;23.332;2023-06-04T08:56:32;11.95;;;7.65;;
23175;SDS011;19910;42.652;23.332;2023-06-04T08:59:00;10.73;;;7.70;;
23175;SDS011;19910;42.652;23.332;2023-06-04T09:01:29;10.43;;;6.47;;
23175;SDS011;19910;42.652;23.332;2023-06-04T09:03:58;10.65;;;6.13;;
23175;SDS011;19910;42.652;23.332;2023-06-04T09:06:27;7.60;;;6.32;;
23175;SDS011;19910;42.652;23.332;2023-06-04T09:08:56;9.57;;;6.93;;
23175;SDS011;19910;42.652;23.332;2023-06-04T09:11:25;12.10;;;6.57;;
23175;SDS011;19910;42.652;23.332;2023-06-04T09:13:54;9.38;;;6.85;;
23175;SDS011;19910;42.652;23.332;2023-06-04T09:16:26;10.90;;;6.85;;
23175;SDS011;19910;42.652;23.332;2023-06-04T09:18:53;9.15;;;7.05;;
23175;SDS011;19910;42.652;23.332;2023-06-04T09:21:22;13.98;;;7.25;;
23175;SDS011;19910;42.652;23.332;2023-06-04T09:23:49;11.32;;;6.68;;
23175;SDS011;19910;42.652;23.332;2023-06-04T09:26:16;11.30;;;7.35;;
23175;SDS011;19910;42.652;23.332;2023-06-04T09:28:44;10.82;;;7.75;;
23175;SDS011;19910;42.652;23.332;2023-06-04T09:31:13;10.88;;;7.93;;
23175;SDS011;19910;42.652;23.332;2023-06-04T09:33:44;11.05;;;7.57;;
23175;SDS011;19910;42.652;23.332;2023-06-04T09:36:11;11.68;;;7.55;;
23175;SDS011;19910;42.652;23.332;2023-06-04T09:38:40;12.27;;;8.13;;
23175;SDS011;19910;42.652;23.332;2023-06-04T09:41:10;11.45;;;7.82;;
23175;SDS011;19910;42.652;23.332;2023-06-04T09:43:38;11.30;;;8.07;;
23175;SDS011;19910;42.652;23.332;2023-06-04T09:46:08;12.95;;;7.95;;
23175;SDS011;19910;42.652;23.332;2023-06-04T09:48:39;11.73;;;8.45;;
23175;SDS011;19910;42.652;23.332;2023-06-04T09:51:06;10.80;;;7.82;;
23175;SDS011;19910;42.652;23.332;2023-06-04T09:53:34;11.27;;;8.05;;
23175;SDS011;19910;42.652;23.332;2023-06-04T09:56:03;10.13;;;7.50;;
23175;SDS011;19910;42.652;23.332;2023-06-04T09:58:31;9.93;;;7.53;;
23175;SDS011;19910;42.652;23.332;2023-06-04T10:00:59;14.02;;;8.52;;
23175;SDS011;19910;42.652;23.332;2023-06-04T10:03:29;12.25;;;7.90;;
23175;SDS011;19910;42.652;23.332;2023-06-04T10:05:58;13.32;;;8.10;;
23175;SDS011;19910;42.652;23.332;2023-06-04T10:08:26;9.93;;;7.35;;
23175;SDS011;19910;42.652;23.332;2023-06-04T10:10:54;10.63;;;7.82;;
23175;SDS011;19910;42.652;23.332;2023-06-04T10:13:24;9.60;;;6.57;;
23175;SDS011;19910;42.652;23.332;2023-06-04T10:15:53;9.35;;;6.43;;
23175;SDS011;19910;42.652;23.332;2023-06-04T10:18:23;11.65;;;6.88;;
23175;SDS011;19910;42.652;23.332;2023-06-04T10:20:50;9.65;;;6.57;;
23175;SDS011;19910;42.652;23.332;2023-06-04T10:23:20;8.20;;;6.28;;
23175;SDS011;19910;42.652;23.332;2023-06-04T10:25:48;9.50;;;6.85;;
23175;SDS011;19910;42.652;23.332;2023-06-04T10:28:17;9.30;;;6.50;;
23175;SDS011;19910;42.652;23.332;2023-06-04T10:30:47;9.95;;;7.05;;
23175;SDS011;19910;42.652;23.332;2023-06-04T10:33:16;7.80;;;6.35;;
23175;SDS011;19910;42.652;23.332;2023-06-04T10:35:45;8.95;;;6.13;;
23175;SDS011;19910;42.652;23.332;2023-06-04T10:38:13;9.57;;;7.28;;
23175;SDS011;19910;42.652;23.332;2023-06-04T10:40:41;10.98;;;6.70;;
23175;SDS011;19910;42.652;23.332;2023-06-04T10:43:08;9.13;;;6.53;;
23175;SDS011;19910;42.652;23.332;2023-06-04T10:45:37;10.45;;;6.57;;
23175;SDS011;19910;42.652;23.332;2023-06-04T10:48:06;11.40;;;7.18;;
23175;SDS011;19910;42.652;23.332;2023-06-04T10:50:33;9.18;;;7.13;;
23175;SDS011;19910;42.652;23.332;2023-06-04T10:53:01;9.02;;;6.10;;
23175;SDS011;19910;42.652;23.332;2023-06-04T10:55:29;7.72;;;6.22;;
23175;SDS011;19910;42.652;23.332;2023-06-04T10:57:56;7.00;;;6.30;;
23175;SDS011;19910;42.652;23.332;2023-06-04T11:00:34;9.32;;;6.15;;
23175;SDS011;19910;42.652;23.332;2023-06-04T11:03:01;10.02;;;6.85;;
23175;SDS011;19910;42.652;23.332;2023-06-04T11:05:34;7.03;;;6.30;;
23175;SDS011;19910;42.652;23.332;2023-06-04T11:08:02;7.20;;;6.28;;
23175;SDS011;19910;42.652;23.332;2023-06-04T11:10:34;8.57;;;6.38;;
23175;SDS011;19910;42.652;23.332;2023-06-04T11:13:01;7.95;;;6.88;;
23175;SDS011;19910;42.652;23.332;2023-06-04T11:15:39;9.93;;;6.97;;
23175;SDS011;19910;42.652;23.332;2023-06-04T11:18:07;7.97;;;6.90;;
23175;SDS011;19910;42.652;23.332;2023-06-04T11:20:35;7.97;;;6.63;;
23175;SDS011;19910;42.652;23.332;2023-06-04T11:23:02;9.13;;;7.20;;
23175;SDS011;19910;42.652;23.332;2023-06-04T11:25:29;8.18;;;7.03;;
23175;SDS011;19910;42.652;23.332;2023-06-04T11:27:58;9.20;;;7.03;;
23175;SDS011;19910;42.652;23.332;2023-06-04T11:30:26;10.68;;;6.88;;
23175;SDS011;19910;42.652;23.332;2023-06-04T11:33:00;9.35;;;7.10;;
23175;SDS011;19910;42.652;23.332;2023-06-04T11:35:27;8.98;;;7.38;;
23175;SDS011;19910;42.652;23.332;2023-06-04T11:37:56;8.02;;;7.00;;
23175;SDS011;19910;42.652;23.332;2023-06-04T11:40:24;12.95;;;7.28;;
23175;SDS011;19910;42.652;23.332;2023-06-04T11:42:52;8.57;;;7.32;;
23175;SDS011;19910;42.652;23.332;2023-06-04T11:45:19;9.60;;;8.15;;
23175;SDS011;19910;42.652;23.332;2023-06-04T11:47:47;7.85;;;7.05;;
23175;SDS011;19910;42.652;23.332;2023-06-04T11:50:15;11.32;;;6.63;;
23175;SDS011;19910;42.652;23.332;2023-06-04T11:52:42;7.35;;;6.57;;
23175;SDS011;19910;42.652;23.332;2023-06-04T11:55:11;13.57;;;7.00;;
23175;SDS011;19910;42.652;23.332;2023-06-04T11:57:38;9.77;;;7.15;;
23175;SDS011;19910;42.652;23.332;2023-06-04T12:00:06;9.02;;;7.80;;
23175;SDS011;19910;42.652;23.332;2023-06-04T12:02:35;9.32;;;7.72;;
23175;SDS011;19910;42.652;23.332;2023-06-04T12:05:12;10.02;;;7.50;;
23175;SDS011;19910;42.652;23.332;2023-06-04T12:07:39;9.07;;;8.07;;
23175;SDS011;19910;42.652;23.332;2023-06-04T12:10:06;10.43;;;7.25;;
23175;SDS011;19910;42.652;23.332;2023-06-04T12:12:35;10.95;;;7.68;;
23175;SDS011;19910;42.652;23.332;2023-06-04T12:15:01;9.80;;;7.68;;
23175;SDS011;19910;42.652;23.332;2023-06-04T12:17:30;10.23;;;8.00;;
23175;SDS011;19910;42.652;23.332;2023-06-04T12:19:57;12.55;;;8.43;;
23175;SDS011;19910;42.652;23.332;2023-06-04T12:22:24;10.50;;;7.88;;
23175;SDS011;19910;42.652;23.332;2023-06-04T12:24:53;8.90;;;8.00;;
23175;SDS011;19910;42.652;23.332;2023-06-04T12:27:21;8.98;;;6.45;;
23175;SDS011;19910;42.652;23.332;2023-06-04T12:29:57;9.85;;;7.80;;
23175;SDS011;19910;42.652;23.332;2023-06-04T12:32:24;13.50;;;8.82;;
23175;SDS011;19910;42.652;23.332;2023-06-04T12:34:51;8.80;;;7.22;;
23175;SDS011;19910;42.652;23.332;2023-06-04T12:37:19;9.18;;;8.20;;
23175;SDS011;19910;42.652;23.332;2023-06-04T12:39:46;11.10;;;7.60;;
23175;SDS011;19910;42.652;23.332;2023-06-04T12:42:13;7.35;;;5.40;;
23175;SDS011;19910;42.652;23.332;2023-06-04T12:44:40;9.38;;;7.20;;
23175;SDS011;19910;42.652;23.332;2023-06-04T12:47:08;10.48;;;8.07;;
23175;SDS011;19910;42.652;23.332;2023-06-04T12:49:36;13.65;;;7.40;;
23175;SDS011;19910;42.652;23.332;2023-06-04T12:52:03;9.75;;;7.22;;
23175;SDS011;19910;42.652;23.332;2023-06-04T12:54:30;9.40;;;7.97;;
23175;SDS011;19910;42.652;23.332;2023-06-04T12:56:58;10.00;;;7.03;;
23175;SDS011;19910;42.652;23.332;2023-06-04T12:59:25;11.70;;;7.70;;
23175;SDS011;19910;42.652;23.332;2023-06-04T13:01:53;11.60;;;7.40;;
23175;SDS011;19910;42.652;23.332;2023-06-04T13:04:22;9.32;;;8.32;;
23175;SDS011;19910;42.652;23.332;2023-06-04T13:06:50;10.77;;;7.43;;
23175;SDS011;19910;42.652;23.332;2023-06-04T13:09:18;9.07;;;8.13;;
23175;SDS011;19910;42.652;23.332;2023-06-04T13:11:45;9.68;;;8.00;;
23175;SDS011;19910;42.652;23.332;2023-06-04T13:14:12;8.40;;;6.15;;
23175;SDS011;19910;42.652;23.332;2023-06-04T13:16:39;8.48;;;6.00;;
23175;SDS011;19910;42.652;23.332;2023-06-04T13:19:06;9.20;;;5.78;;
23175;SDS011;19910;42.652;23.332;2023-06-04T13:21:34;13.15;;;6.47;;
23175;SDS011;19910;42.652;23.332;2023-06-04T13:24:01;7.97;;;6.80;;
23175;SDS011;19910;42.652;23.332;2023-06-04T13:26:28;9.57;;;7.35;;
23175;SDS011;19910;42.652;23.332;2023-06-04T13:28:55;7.32;;;6.50;;
23175;SDS011;19910;42.652;23.332;2023-06-04T13:31:22;7.70;;;5.20;;
23175;SDS011;19910;42.652;23.332;2023-06-04T13:33:48;10.23;;;6.80;;
23175;SDS011;19910;42.652;23.332;2023-06-04T13:36:15;7.30;;;5.85;;
23175;SDS011;19910;42.652;23.332;2023-06-04T13:38:43;8.68;;;6.03;;
23175;SDS011;19910;42.652;23.332;2023-06-04T13:41:10;9.75;;;6.63;;
23175;SDS011;19910;42.652;23.332;2023-06-04T13:43:37;9.90;;;7.15;;
23175;SDS011;19910;42.652;23.332;2023-06-04T13:46:04;11.77;;;6.70;;
23175;SDS011;19910;42.652;23.332;2023-06-04T13:48:31;9.85;;;6.88;;
23175;SDS011;19910;42.652;23.332;2023-06-04T13:50:57;10.95;;;6.93;;
23175;SDS011;19910;42.652;23.332;2023-06-04T13:53:24;8.07;;;7.22;;
23175;SDS011;19910;42.652;23.332;2023-06-04T13:55:52;7.85;;;6.88;;
23175;SDS011;19910;42.652;23.332;2023-06-04T13:58:23;10.60;;;6.68;;
23175;SDS011;19910;42.652;23.332;2023-06-04T14:00:50;12.25;;;6.60;;
23175;SDS011;19910;42.652;23.332;2023-06-04T14:03:17;8.10;;;7.03;;
23175;SDS011;19910;42.652;23.332;2023-06-04T14:05:43;7.60;;;6.60;;
23175;SDS011;19910;42.652;23.332;2023-06-04T14:08:10;8.25;;;6.40;;
23175;SDS011;19910;42.652;23.332;2023-06-04T14:10:38;8.27;;;6.68;;
23175;SDS011;19910;42.652;23.332;2023-06-04T14:13:07;8.60;;;7.25;;
23175;SDS011;19910;42.652;23.332;2023-06-04T14:15:34;9.60;;;7.20;;
23175;SDS011;19910;42.652;23.332;2023-06-04T14:18:01;7.28;;;6.22;;
23175;SDS011;19910;42.652;23.332;2023-06-04T14:20:29;9.13;;;6.97;;
23175;SDS011;19910;42.652;23.332;2023-06-04T14:22:56;10.25;;;7.47;;
23175;SDS011;19910;42.652;23.332;2023-06-04T14:25:24;7.38;;;6.53;;
23175;SDS011;19910;42.652;23.332;2023-06-04T14:27:51;7.85;;;7.05;;
23175;SDS011;19910;42.652;23.332;2023-06-04T14:30:19;8.52;;;7.00;;
23175;SDS011;19910;42.652;23.332;2023-06-04T14:32:46;9.68;;;7.80;;
23175;SDS011;19910;42.652;23.332;2023-06-04T14:35:13;8.48;;;7.03;;